Time;durP1;ratioP1;P1;durP2;ratioP2;P2;SDS_P1;SDS_P2;PMS_P1;PMS_P2;Temp;Humidity;BMP_temperature;BMP_pressure;BME280_temperature;BME280_humidity;BME280_pressure;Samples;Min_cycle;Max_cycle;Signal;HPM_P1;HPM_P2
2022/07/22 00:01:02;;;;;;;2.67;0.90;;;;;22.80;102029.00;;;;5033754;28;20216;-78
2022/07/22 00:03:29;;;;;;;4.55;1.00;;;;;22.80;102040.00;;;;5043270;28;20198;-79
2022/07/22 00:05:56;;;;;;;2.42;0.82;;;;;22.80;102035.00;;;;5030578;28;20203;-78
2022/07/22 00:08:24;;;;;;;2.97;0.80;;;;;22.80;102030.00;;;;5038083;28;20207;-79
2022/07/22 00:10:51;;;;;;;3.08;1.10;;;;;22.80;102034.00;;;;5043579;28;20204;-78
2022/07/22 00:13:20;;;;;;;3.55;1.15;;;;;22.80;102034.00;;;;5029113;28;20200;-78
2022/07/22 00:15:47;;;;;;;3.80;1.10;;;;;22.80;102031.00;;;;5035926;28;20207;-78
2022/07/22 00:18:15;;;;;;;3.42;0.77;;;;;22.80;102027.00;;;;5035673;28;20211;-78
2022/07/22 00:20:42;;;;;;;1.88;0.90;;;;;22.80;102022.00;;;;5035706;28;20568;-78
2022/07/22 00:23:10;;;;;;;3.67;1.00;;;;;22.80;102033.00;;;;5033722;28;20207;-78
2022/07/22 00:25:38;;;;;;;3.28;0.90;;;;;22.80;102020.00;;;;5033014;28;20207;-78
2022/07/22 00:28:05;;;;;;;4.68;1.00;;;;;22.80;102031.00;;;;5029670;28;20204;-78
2022/07/22 00:30:34;;;;;;;3.15;1.00;;;;;22.80;102028.00;;;;5031465;28;20196;-78
2022/07/22 00:33:01;;;;;;;2.33;1.10;;;;;22.70;102021.00;;;;5034996;28;20203;-78
2022/07/22 00:35:29;;;;;;;2.40;1.13;;;;;22.70;102024.00;;;;5042601;28;20195;-78
2022/07/22 00:37:56;;;;;;;1.48;0.88;;;;;22.70;102021.00;;;;5030896;28;20197;-78
2022/07/22 00:40:24;;;;;;;2.90;0.93;;;;;22.70;102020.00;;;;5043647;28;20220;-78
2022/07/22 00:42:52;;;;;;;1.83;1.10;;;;;22.70;102026.00;;;;5031564;28;20675;-78
2022/07/22 00:45:20;;;;;;;3.20;1.17;;;;;22.70;102026.00;;;;5029281;28;20200;-78
2022/07/22 00:47:49;;;;;;;1.90;0.90;;;;;22.70;102023.00;;;;5041604;28;20203;-78
2022/07/22 00:50:19;;;;;;;2.47;0.90;;;;;22.70;102018.00;;;;5035203;28;20578;-78
2022/07/22 00:52:48;;;;;;;4.15;1.25;;;;;22.70;102020.00;;;;5034724;28;20702;-78
2022/07/22 00:55:15;;;;;;;1.40;0.90;;;;;22.70;102019.00;;;;5033578;28;20674;-78
2022/07/22 00:57:43;;;;;;;3.22;0.98;;;;;22.70;102020.00;;;;5042671;28;20598;-79
2022/07/22 01:00:15;;;;;;;2.13;1.20;;;;;22.70;102018.00;;;;5038688;28;20216;-79
2022/07/22 01:02:43;;;;;;;4.25;1.38;;;;;22.70;102016.00;;;;5037915;28;20199;-79
2022/07/22 01:05:11;;;;;;;1.90;1.23;;;;;22.70;102020.00;;;;5027035;28;20208;-78
2022/07/22 01:07:39;;;;;;;2.03;1.00;;;;;22.70;102019.00;;;;5039179;28;20192;-78
2022/07/22 01:10:08;;;;;;;2.88;1.40;;;;;22.70;102016.00;;;;5029602;28;20195;-79
2022/07/22 01:12:36;;;;;;;4.80;1.63;;;;;22.70;102019.00;;;;5032195;28;20230;-78
2022/07/22 01:15:03;;;;;;;5.10;1.20;;;;;22.70;102017.00;;;;5047445;28;20203;-78
2022/07/22 01:17:31;;;;;;;1.45;1.08;;;;;22.70;102015.00;;;;5034095;28;20192;-78
2022/07/22 01:20:02;;;;;;;2.83;0.80;;;;;22.70;102016.00;;;;5036197;28;20224;-78
2022/07/22 01:22:29;;;;;;;4.50;1.05;;;;;22.70;102014.00;;;;5029052;28;20196;-78
2022/07/22 01:24:57;;;;;;;2.47;1.38;;;;;22.70;102016.00;;;;5029297;28;20208;-78
2022/07/22 01:27:24;;;;;;;2.75;1.10;;;;;22.70;102018.00;;;;5029465;28;21007;-78
2022/07/22 01:29:51;;;;;;;5.35;0.95;;;;;22.70;102015.00;;;;5040189;28;20295;-78
2022/07/22 01:32:19;;;;;;;4.53;1.10;;;;;22.70;102014.00;;;;5030137;28;20203;-79
2022/07/22 01:34:46;;;;;;;1.42;1.15;;;;;22.70;102013.00;;;;5030720;28;20196;-79
2022/07/22 01:37:15;;;;;;;2.30;1.00;;;;;22.70;102002.00;;;;5033802;28;20562;-78
2022/07/22 01:39:42;;;;;;;2.67;0.98;;;;;22.80;102013.00;;;;5034965;28;20224;-78
2022/07/22 01:42:10;;;;;;;2.95;1.02;;;;;22.80;102015.00;;;;5026871;28;20204;-79
2022/07/22 01:44:37;;;;;;;2.85;1.33;;;;;22.80;102014.00;;;;5027667;28;20195;-76
2022/07/22 01:47:04;;;;;;;2.97;0.82;;;;;22.80;102023.00;;;;5028491;28;20196;-77
2022/07/22 01:49:33;;;;;;;2.67;0.88;;;;;22.80;102009.00;;;;5030980;28;20219;-77
2022/07/22 01:52:00;;;;;;;1.80;1.30;;;;;22.80;102006.00;;;;5033299;28;20231;-77
2022/07/22 01:54:29;;;;;;;4.80;1.42;;;;;22.80;102011.00;;;;5028094;28;20193;-77
2022/07/22 01:56:56;;;;;;;2.83;1.05;;;;;22.80;101998.00;;;;5026515;28;20220;-77
2022/07/22 01:59:23;;;;;;;2.60;1.67;;;;;22.80;102005.00;;;;5029366;28;20220;-77
2022/07/22 02:01:51;;;;;;;3.05;1.10;;;;;22.80;102007.00;;;;5028441;28;20678;-77
2022/07/22 02:04:18;;;;;;;3.78;1.63;;;;;22.80;102004.00;;;;5033064;28;20203;-77
2022/07/22 02:06:45;;;;;;;1.80;1.00;;;;;22.80;102005.00;;;;5030574;28;20566;-77
2022/07/22 02:09:13;;;;;;;7.63;1.15;;;;;22.80;102006.00;;;;5026947;28;20206;-78
2022/07/22 02:11:42;;;;;;;2.75;1.15;;;;;22.70;102007.00;;;;5028010;28;20200;-77
2022/07/22 02:14:09;;;;;;;2.08;0.95;;;;;22.80;102008.00;;;;5038135;28;20218;-77
2022/07/22 02:16:37;;;;;;;5.18;1.50;;;;;22.80;101999.00;;;;5045291;28;20198;-77
2022/07/22 02:19:04;;;;;;;2.00;1.10;;;;;22.80;102002.00;;;;5037617;28;20219;-77
2022/07/22 02:21:31;;;;;;;6.93;1.50;;;;;22.80;101996.00;;;;5031375;28;20249;-77
2022/07/22 02:23:59;;;;;;;2.90;1.33;;;;;22.80;101989.00;;;;5046919;28;20210;-78
2022/07/22 02:26:26;;;;;;;3.47;1.30;;;;;22.80;101987.00;;;;5037980;28;20201;-78
2022/07/22 02:28:55;;;;;;;3.90;1.20;;;;;22.80;101981.00;;;;5027571;28;20203;-78
2022/07/22 02:31:22;;;;;;;3.05;1.20;;;;;22.80;101985.00;;;;5027064;28;20722;-78
2022/07/22 02:33:49;;;;;;;3.33;0.85;;;;;22.80;101991.00;;;;5038059;28;20215;-78
2022/07/22 02:36:17;;;;;;;2.70;0.85;;;;;22.80;101987.00;;;;5040042;28;20199;-78
2022/07/22 02:38:45;;;;;;;1.83;0.90;;;;;22.80;101987.00;;;;5028640;28;20200;-78
2022/07/22 02:41:12;;;;;;;2.45;1.10;;;;;22.80;101986.00;;;;5036633;28;20219;-78
2022/07/22 02:43:39;;;;;;;5.90;1.30;;;;;22.80;101979.00;;;;5031084;28;20215;-78
2022/07/22 02:46:08;;;;;;;3.63;1.35;;;;;22.80;101984.00;;;;5031894;28;20219;-78
2022/07/22 02:48:36;;;;;;;3.40;1.17;;;;;22.80;101993.00;;;;5030681;28;20216;-77
2022/07/22 02:51:03;;;;;;;3.25;1.00;;;;;22.80;101989.00;;;;5029618;28;20207;-78
2022/07/22 02:53:30;;;;;;;2.90;1.20;;;;;22.80;101988.00;;;;5032843;28;20667;-78
2022/07/22 02:55:57;;;;;;;3.60;1.10;;;;;22.80;101988.00;;;;5028169;28;20207;-78
2022/07/22 02:58:25;;;;;;;3.25;1.17;;;;;22.80;101989.00;;;;5037158;28;20219;-78
2022/07/22 03:00:52;;;;;;;1.98;1.30;;;;;22.80;101989.00;;;;5031779;28;20224;-78
2022/07/22 03:03:21;;;;;;;9.18;1.73;;;;;22.70;101990.00;;;;5033069;28;20200;-78
2022/07/22 03:05:48;;;;;;;1.80;1.15;;;;;22.80;101987.00;;;;5034865;28;20196;-78
2022/07/22 03:08:15;;;;;;;2.22;0.95;;;;;22.80;101989.00;;;;5027364;28;20207;-78
2022/07/22 03:10:43;;;;;;;1.23;0.95;;;;;22.70;101982.00;;;;5027847;28;20196;-76
2022/07/22 03:13:10;;;;;;;3.50;0.93;;;;;22.80;101990.00;;;;5029269;28;20931;-77
2022/07/22 03:15:37;;;;;;;2.80;1.20;;;;;22.80;101987.00;;;;5029401;28;20191;-77
2022/07/22 03:18:05;;;;;;;1.42;1.10;;;;;22.80;101983.00;;;;5044902;28;20196;-77
2022/07/22 03:20:34;;;;;;;1.95;1.08;;;;;22.80;101986.00;;;;5042633;28;20232;-77
2022/07/22 03:23:01;;;;;;;2.25;1.10;;;;;22.80;101988.00;;;;5027642;28;20192;-77
2022/07/22 03:25:30;;;;;;;2.67;1.00;;;;;22.80;101986.00;;;;5039920;28;20661;-77
2022/07/22 03:27:58;;;;;;;2.35;1.05;;;;;22.80;101985.00;;;;5031746;28;20567;-77
2022/07/22 03:30:25;;;;;;;2.85;1.13;;;;;22.80;101986.00;;;;5032832;28;20204;-77
2022/07/22 03:32:52;;;;;;;5.95;1.00;;;;;22.80;101987.00;;;;5042795;28;20195;-77
2022/07/22 03:35:20;;;;;;;1.10;0.73;;;;;22.80;101984.00;;;;5040041;28;20188;-77
2022/07/22 03:37:49;;;;;;;1.10;0.80;;;;;22.80;101988.00;;;;5048101;28;20191;-77
2022/07/22 03:40:16;;;;;;;1.67;0.80;;;;;22.80;101990.00;;;;5048764;28;20281;-77
2022/07/22 03:42:44;;;;;;;2.45;1.00;;;;;22.80;101995.00;;;;5047105;28;20200;-77
2022/07/22 03:45:12;;;;;;;2.03;0.90;;;;;22.80;101986.00;;;;5032204;28;22438;-77
2022/07/22 03:47:40;;;;;;;4.38;1.08;;;;;22.80;101989.00;;;;5048959;28;20191;-77
2022/07/22 03:50:07;;;;;;;1.73;0.85;;;;;22.80;101986.00;;;;5037560;28;20207;-77
2022/07/22 03:52:35;;;;;;;1.85;0.88;;;;;22.80;101979.00;;;;5049926;28;20211;-77
2022/07/22 03:55:04;;;;;;;2.08;1.35;;;;;22.80;101982.00;;;;5046458;28;20207;-77
2022/07/22 03:57:31;;;;;;;0.93;0.80;;;;;22.80;101991.00;;;;5033059;28;20605;-77
2022/07/22 03:59:59;;;;;;;4.00;1.13;;;;;22.80;101990.00;;;;5048504;28;20226;-77
2022/07/22 04:02:26;;;;;;;2.35;1.30;;;;;22.80;101987.00;;;;5033350;28;20208;-77
2022/07/22 04:04:53;;;;;;;8.45;1.30;;;;;22.80;101981.00;;;;5030106;28;20207;-77
2022/07/22 04:07:21;;;;;;;2.63;1.10;;;;;22.80;101982.00;;;;5041475;28;20207;-78
2022/07/22 04:09:48;;;;;;;3.33;1.00;;;;;22.80;101982.00;;;;5038272;28;20207;-77
2022/07/22 04:12:17;;;;;;;3.72;0.90;;;;;22.80;101984.00;;;;5032931;28;20196;-77
2022/07/22 04:14:44;;;;;;;6.85;1.27;;;;;22.80;101988.00;;;;5038990;28;20200;-77
2022/07/22 04:17:11;;;;;;;4.20;1.17;;;;;22.80;101981.00;;;;5034529;28;20192;-77
2022/07/22 04:19:38;;;;;;;3.38;1.10;;;;;22.80;101989.00;;;;5030600;28;20193;-78
2022/07/22 04:22:06;;;;;;;4.50;1.30;;;;;22.80;101989.00;;;;5039131;28;20191;-78
2022/07/22 04:24:33;;;;;;;1.13;0.80;;;;;22.80;101981.00;;;;5034055;28;20188;-78
2022/07/22 04:27:00;;;;;;;1.83;0.93;;;;;22.80;101981.00;;;;5041676;28;20191;-78
2022/07/22 04:29:29;;;;;;;1.70;0.88;;;;;22.80;101980.00;;;;5039663;28;20872;-77
2022/07/22 04:31:57;;;;;;;6.28;1.25;;;;;22.80;101978.00;;;;5049609;28;20200;-77
2022/07/22 04:34:24;;;;;;;1.00;0.80;;;;;22.80;101976.00;;;;5042868;28;20203;-77
2022/07/22 04:36:51;;;;;;;2.13;0.82;;;;;22.80;101984.00;;;;5035530;28;20199;-77
2022/07/22 04:39:18;;;;;;;3.60;0.80;;;;;22.80;101973.00;;;;5034238;28;20222;-78
2022/07/22 04:41:46;;;;;;;2.00;0.90;;;;;22.80;101970.00;;;;5043851;28;20749;-77
2022/07/22 04:44:13;;;;;;;2.67;1.20;;;;;22.80;101975.00;;;;5049996;28;20207;-77
2022/07/22 04:46:42;;;;;;;2.90;0.90;;;;;22.80;101971.00;;;;5041225;28;20199;-77
2022/07/22 04:49:10;;;;;;;3.72;1.17;;;;;22.90;101972.00;;;;5041701;28;20230;-78
2022/07/22 04:51:37;;;;;;;2.15;1.08;;;;;22.90;101970.00;;;;5039526;28;20579;-77
2022/07/22 04:54:04;;;;;;;1.10;0.85;;;;;22.90;101973.00;;;;5042121;28;20663;-77
2022/07/22 04:56:32;;;;;;;1.58;0.90;;;;;22.90;101966.00;;;;5042465;28;20200;-77
2022/07/22 04:58:59;;;;;;;1.90;0.98;;;;;22.90;101965.00;;;;5039587;28;20199;-77
2022/07/22 05:01:27;;;;;;;4.25;1.13;;;;;22.90;101966.00;;;;5036545;28;20211;-77
2022/07/22 05:03:55;;;;;;;1.52;1.02;;;;;22.90;101968.00;;;;5035197;28;20204;-77
2022/07/22 05:06:23;;;;;;;2.78;0.85;;;;;22.90;101965.00;;;;5035538;28;20191;-77
2022/07/22 05:08:50;;;;;;;2.42;1.15;;;;;22.90;101956.00;;;;5037567;28;20195;-77
2022/07/22 05:11:18;;;;;;;3.55;0.93;;;;;23.00;101967.00;;;;5037647;28;20282;-77
2022/07/22 05:13:45;;;;;;;2.50;1.02;;;;;23.00;101973.00;;;;5029166;28;20231;-78
2022/07/22 05:16:12;;;;;;;3.15;1.35;;;;;23.00;101976.00;;;;5040460;28;20669;-78
2022/07/22 05:18:40;;;;;;;3.15;1.05;;;;;23.00;101980.00;;;;5029602;28;20200;-77
2022/07/22 05:21:09;;;;;;;3.67;0.93;;;;;23.00;101976.00;;;;5036726;28;20235;-78
2022/07/22 05:23:36;;;;;;;1.23;0.95;;;;;23.00;101971.00;;;;5049567;28;20732;-77
2022/07/22 05:26:05;;;;;;;2.65;1.10;;;;;23.00;101970.00;;;;5049869;28;20567;-77
2022/07/22 05:28:33;;;;;;;4.00;1.10;;;;;23.10;101977.00;;;;5034042;28;20211;-77
2022/07/22 05:31:00;;;;;;;1.52;0.80;;;;;23.10;101975.00;;;;5031139;28;20208;-77
2022/07/22 05:33:27;;;;;;;1.77;0.80;;;;;23.10;101975.00;;;;5028777;28;20291;-78
2022/07/22 05:35:55;;;;;;;2.15;1.02;;;;;23.10;101973.00;;;;5039288;28;20204;-77
2022/07/22 05:38:23;;;;;;;1.38;0.80;;;;;23.10;101975.00;;;;5029074;28;20662;-77
2022/07/22 05:40:51;;;;;;;4.53;0.93;;;;;23.20;101977.00;;;;5029401;28;20690;-77
2022/07/22 05:43:18;;;;;;;1.83;1.27;;;;;23.20;101976.00;;;;5028941;28;20553;-78
2022/07/22 05:45:46;;;;;;;4.68;0.77;;;;;23.20;101978.00;;;;5038445;28;20852;-77
2022/07/22 05:48:13;;;;;;;2.75;1.00;;;;;23.20;101980.00;;;;5045447;28;20322;-77
2022/07/22 05:50:40;;;;;;;1.35;0.90;;;;;23.20;101986.00;;;;5041077;28;20711;-78
2022/07/22 05:53:07;;;;;;;1.77;0.60;;;;;23.30;101989.00;;;;5041429;28;20291;-77
2022/07/22 05:55:36;;;;;;;2.53;0.90;;;;;23.30;101991.00;;;;5028272;28;20202;-77
2022/07/22 05:58:05;;;;;;;1.58;0.80;;;;;23.30;101991.00;;;;5030903;28;20230;-77
2022/07/22 06:00:33;;;;;;;1.90;0.77;;;;;23.30;101986.00;;;;5038785;28;20211;-77
2022/07/22 06:03:00;;;;;;;1.33;0.75;;;;;23.30;101987.00;;;;5028371;28;20212;-79
2022/07/22 06:05:27;;;;;;;3.55;1.33;;;;;23.30;101991.00;;;;5031433;28;20582;-79
2022/07/22 06:07:55;;;;;;;2.28;0.65;;;;;23.40;101990.00;;;;5035356;28;20195;-78
2022/07/22 06:10:22;;;;;;;1.33;0.57;;;;;23.40;101988.00;;;;5037925;28;20192;-79
2022/07/22 06:12:51;;;;;;;1.83;0.70;;;;;23.40;101992.00;;;;5033624;28;20191;-78
2022/07/22 06:15:18;;;;;;;3.55;1.02;;;;;23.40;101983.00;;;;5027015;28;20211;-78
2022/07/22 06:17:46;;;;;;;3.28;0.80;;;;;23.40;101985.00;;;;5034930;28;20203;-78
2022/07/22 06:20:13;;;;;;;0.82;0.38;;;;;23.50;101985.00;;;;5027758;28;20219;-78
2022/07/22 06:22:41;;;;;;;1.95;0.77;;;;;23.50;101989.00;;;;5039083;28;20207;-78
2022/07/22 06:25:09;;;;;;;1.00;0.43;;;;;23.50;101985.00;;;;5047393;28;20211;-78
2022/07/22 06:27:37;;;;;;;0.95;0.50;;;;;23.50;101979.00;;;;5043584;28;20193;-78
2022/07/22 06:30:08;;;;;;;0.77;0.65;;;;;23.50;101980.00;;;;5040875;28;20188;-77
2022/07/22 06:32:35;;;;;;;1.25;0.52;;;;;23.60;101973.00;;;;5036493;28;20570;-79
2022/07/22 06:35:05;;;;;;;1.73;0.47;;;;;23.60;101978.00;;;;5035682;28;20200;-78
2022/07/22 06:37:35;;;;;;;1.95;0.50;;;;;23.70;101977.00;;;;5030497;28;20211;-79
2022/07/22 06:40:02;;;;;;;2.40;0.50;;;;;23.70;101982.00;;;;5043030;28;20660;-79
2022/07/22 06:42:31;;;;;;;0.95;0.57;;;;;23.70;101976.00;;;;5033200;28;20363;-78
2022/07/22 06:44:58;;;;;;;0.70;0.40;;;;;23.80;101976.00;;;;5030550;28;20589;-77
2022/07/22 06:47:27;;;;;;;1.27;0.30;;;;;23.80;101976.00;;;;5040869;28;21099;-77
2022/07/22 06:49:54;;;;;;;0.55;0.30;;;;;23.80;101977.00;;;;5036804;28;20600;-78
2022/07/22 06:52:21;;;;;;;2.40;0.73;;;;;23.90;101980.00;;;;5033832;28;20211;-77
2022/07/22 06:54:49;;;;;;;1.20;0.45;;;;;23.90;101978.00;;;;5032054;28;20200;-78
2022/07/22 06:57:16;;;;;;;2.17;0.55;;;;;23.90;101981.00;;;;5038922;28;20882;-79
2022/07/22 06:59:45;;;;;;;1.25;0.32;;;;;24.00;101982.00;;;;5046576;28;20219;-78
2022/07/22 07:02:12;;;;;;;2.35;1.15;;;;;24.00;101988.00;;;;5044842;28;20277;-77
2022/07/22 07:04:41;;;;;;;1.10;0.75;;;;;24.00;101974.00;;;;5050695;28;20200;-77
2022/07/22 07:07:09;;;;;;;2.28;0.50;;;;;24.10;101983.00;;;;5051313;28;20690;-77
2022/07/22 07:09:36;;;;;;;2.03;0.40;;;;;24.10;101986.00;;;;5050352;28;20204;-77
2022/07/22 07:12:04;;;;;;;1.98;0.70;;;;;24.10;101982.00;;;;5050255;28;20203;-76
2022/07/22 07:14:31;;;;;;;1.33;0.85;;;;;24.20;101979.00;;;;5038192;28;20200;-76
2022/07/22 07:16:58;;;;;;;1.20;0.55;;;;;24.20;101982.00;;;;5051505;28;20780;-78
2022/07/22 07:19:25;;;;;;;0.43;0.32;;;;;24.20;101989.00;;;;5051112;28;20211;-78
2022/07/22 07:21:54;;;;;;;3.83;0.63;;;;;24.20;101977.00;;;;5045694;28;20226;-78
2022/07/22 07:24:21;;;;;;;1.90;0.63;;;;;24.30;101975.00;;;;5041647;28;20199;-78
2022/07/22 07:26:48;;;;;;;1.67;0.57;;;;;24.40;101978.00;;;;5039761;28;20604;-78
2022/07/22 07:29:16;;;;;;;1.65;0.52;;;;;24.40;101975.00;;;;5050097;28;20203;-78
2022/07/22 07:31:43;;;;;;;0.70;0.47;;;;;24.40;101978.00;;;;5048448;28;20650;-78
2022/07/22 07:34:10;;;;;;;0.88;0.40;;;;;24.50;101976.00;;;;5037761;28;20208;-78
2022/07/22 07:36:38;;;;;;;0.90;0.50;;;;;24.60;101978.00;;;;5040763;28;20196;-78
2022/07/22 07:39:06;;;;;;;2.15;0.50;;;;;24.60;101983.00;;;;5046769;28;20207;-77
2022/07/22 07:41:34;;;;;;;1.25;0.63;;;;;24.70;101981.00;;;;5050323;28;20227;-77
2022/07/22 07:44:01;;;;;;;1.15;0.38;;;;;24.70;101978.00;;;;5045909;28;20207;-78
2022/07/22 07:46:28;;;;;;;2.58;0.50;;;;;24.70;101979.00;;;;5047722;28;20207;-77
2022/07/22 07:48:56;;;;;;;1.73;0.47;;;;;24.80;101977.00;;;;5040212;28;20223;-78
2022/07/22 07:51:26;;;;;;;0.65;0.43;;;;;24.80;101973.00;;;;5033966;28;20207;-78
2022/07/22 07:53:53;;;;;;;1.80;0.60;;;;;24.90;101983.00;;;;5042405;28;20205;-78
2022/07/22 07:56:22;;;;;;;0.93;0.68;;;;;24.90;101977.00;;;;5041900;28;20207;-78
2022/07/22 07:58:49;;;;;;;1.42;0.50;;;;;24.90;101985.00;;;;5065769;28;20235;-78
2022/07/22 08:01:16;;;;;;;2.10;0.70;;;;;24.90;101984.00;;;;5039480;28;20239;-78
2022/07/22 08:03:44;;;;;;;2.60;0.73;;;;;25.00;101986.00;;;;5050179;28;20207;-78
2022/07/22 08:06:11;;;;;;;0.30;0.28;;;;;25.00;101983.00;;;;5041603;28;20207;-78
2022/07/22 08:08:38;;;;;;;1.45;0.47;;;;;25.00;101980.00;;;;5043989;28;20208;-78
2022/07/22 08:11:06;;;;;;;1.52;0.57;;;;;25.10;101984.00;;;;5065686;28;20202;-78
2022/07/22 08:13:38;;;;;;;0.77;0.38;;;;;25.10;101988.00;;;;5030703;28;20208;-78
2022/07/22 08:16:06;;;;;;;1.63;0.38;;;;;25.20;101983.00;;;;5045713;28;20580;-78
2022/07/22 08:18:33;;;;;;;1.80;0.45;;;;;25.30;101986.00;;;;5049509;28;20207;-79
2022/07/22 08:21:00;;;;;;;4.85;0.73;;;;;25.30;101988.00;;;;5057734;28;20220;-79
2022/07/22 08:23:28;;;;;;;1.77;0.50;;;;;25.40;101987.00;;;;5049973;28;20202;-79
2022/07/22 08:25:57;;;;;;;2.20;0.60;;;;;25.50;101983.00;;;;5051976;28;20776;-78
2022/07/22 08:28:24;;;;;;;1.38;0.47;;;;;25.60;101974.00;;;;5048011;28;20693;-78
2022/07/22 08:30:53;;;;;;;0.88;0.40;;;;;25.60;101981.00;;;;5059635;28;20200;-78
2022/07/22 08:33:23;;;;;;;0.82;0.57;;;;;25.70;101971.00;;;;5045017;28;20211;-79
2022/07/22 08:35:50;;;;;;;1.15;0.63;;;;;25.70;101965.00;;;;5038815;28;20203;-79
2022/07/22 08:38:19;;;;;;;3.17;0.60;;;;;25.80;101962.00;;;;5030975;28;20737;-78
2022/07/22 08:40:46;;;;;;;0.50;0.50;;;;;25.90;101970.00;;;;5046607;28;20199;-79
2022/07/22 08:43:13;;;;;;;1.23;0.52;;;;;25.90;101969.00;;;;5044436;28;20204;-77
2022/07/22 08:45:41;;;;;;;1.27;0.30;;;;;26.00;101968.00;;;;5041949;28;20594;-77
2022/07/22 08:48:11;;;;;;;0.65;0.20;;;;;26.00;101965.00;;;;5046992;28;20207;-76
2022/07/22 08:50:39;;;;;;;1.05;0.50;;;;;26.00;101965.00;;;;5048497;28;20210;-76
2022/07/22 08:53:09;;;;;;;2.53;0.38;;;;;26.00;101959.00;;;;5029927;28;20274;-75
2022/07/22 08:55:42;;;;;;;1.95;0.57;;;;;25.90;101956.00;;;;5059169;28;20198;-76
2022/07/22 08:58:10;;;;;;;1.35;0.50;;;;;26.00;101952.00;;;;5034098;28;20234;-76
2022/07/22 09:00:37;;;;;;;2.58;0.40;;;;;26.00;101956.00;;;;5042884;28;20196;-77
2022/07/22 09:03:21;;;;;;;2.28;0.50;;;;;25.80;101950.00;;;;5043781;28;20364;-76
2022/07/22 09:05:49;;;;;;;1.27;0.63;;;;;25.90;101956.00;;;;5051186;28;20223;-76
2022/07/22 09:08:17;;;;;;;1.15;0.43;;;;;25.90;101957.00;;;;5046183;28;20199;-78
2022/07/22 09:10:44;;;;;;;1.00;0.45;;;;;25.90;101948.00;;;;5029258;28;20200;-77
2022/07/22 09:13:12;;;;;;;2.45;0.60;;;;;25.90;101944.00;;;;5045999;28;21507;-77
2022/07/22 09:15:47;;;;;;;1.63;0.55;;;;;25.90;101947.00;;;;5049117;28;20204;-77
2022/07/22 09:18:15;;;;;;;1.60;0.52;;;;;25.90;101951.00;;;;5045441;28;20199;-78
2022/07/22 09:20:44;;;;;;;0.50;0.50;;;;;25.90;101951.00;;;;5037590;28;20205;-78
2022/07/22 09:23:13;;;;;;;1.15;0.55;;;;;26.00;101955.00;;;;5043516;28;20984;-76
2022/07/22 09:25:42;;;;;;;1.20;0.73;;;;;26.00;101958.00;;;;5038817;28;20279;-77
2022/07/22 09:28:15;;;;;;;0.60;0.57;;;;;25.90;101959.00;;;;5036558;28;20211;-78
2022/07/22 09:30:49;;;;;;;2.95;0.45;;;;;25.90;101956.00;;;;5037674;28;20658;-78
2022/07/22 09:33:17;;;;;;;0.68;0.40;;;;;26.00;101966.00;;;;5047794;28;20210;-79
2022/07/22 09:35:46;;;;;;;1.38;0.70;;;;;26.00;101963.00;;;;5031136;28;20207;-77
2022/07/22 09:38:16;;;;;;;1.08;0.47;;;;;26.00;101954.00;;;;5051848;28;20207;-79
2022/07/22 09:40:45;;;;;;;1.38;0.50;;;;;26.00;101955.00;;;;5055676;28;20200;-78
2022/07/22 09:43:15;;;;;;;2.95;0.65;;;;;26.00;101960.00;;;;5029602;28;20234;-79
2022/07/22 09:45:48;;;;;;;1.52;0.40;;;;;26.00;101950.00;;;;5034277;28;20245;-79
2022/07/22 09:48:17;;;;;;;1.30;0.93;;;;;26.00;101953.00;;;;5046104;28;20207;-79
2022/07/22 09:50:50;;;;;;;5.80;1.23;;;;;26.00;101958.00;;;;5048115;28;20238;-79
2022/07/22 09:53:19;;;;;;;1.10;0.60;;;;;26.00;101955.00;;;;5049299;28;20211;-78
2022/07/22 09:55:47;;;;;;;1.00;0.63;;;;;26.00;101949.00;;;;5042388;28;22602;-79
2022/07/22 09:58:14;;;;;;;1.17;0.45;;;;;25.90;101948.00;;;;5036148;28;20228;-78
2022/07/22 10:00:43;;;;;;;1.88;0.52;;;;;25.90;101954.00;;;;5036007;28;20203;-81
2022/07/22 10:03:14;;;;;;;1.23;0.65;;;;;25.90;101962.00;;;;5048406;28;20227;-80
2022/07/22 10:05:42;;;;;;;0.80;0.50;;;;;25.90;101965.00;;;;5045885;28;20562;-78
2022/07/22 10:08:11;;;;;;;1.50;0.63;;;;;25.80;101965.00;;;;5033808;28;20576;-78
2022/07/22 10:10:41;;;;;;;0.60;0.50;;;;;25.80;101968.00;;;;5048419;28;20211;-77
2022/07/22 10:13:09;;;;;;;0.85;0.30;;;;;25.80;101970.00;;;;5033986;28;20710;-77
2022/07/22 10:15:38;;;;;;;1.20;0.50;;;;;25.80;101971.00;;;;5028729;28;20545;-77
2022/07/22 10:18:07;;;;;;;1.30;0.50;;;;;25.80;101963.00;;;;5029164;28;20195;-75
2022/07/22 10:20:35;;;;;;;1.50;0.57;;;;;25.90;101964.00;;;;5030243;28;20192;-76
2022/07/22 10:23:04;;;;;;;0.80;0.60;;;;;26.00;101962.00;;;;5044898;28;20232;-77
2022/07/22 10:25:49;;;;;;;1.35;0.70;;;;;26.10;101962.00;;;;5031982;28;20196;-75
2022/07/22 10:28:23;;;;;;;2.25;0.50;;;;;26.30;101975.00;;;;5039488;28;20218;-77
2022/07/22 10:30:51;;;;;;;1.55;0.55;;;;;26.40;101981.00;;;;5028166;28;20211;-77
2022/07/22 10:33:20;;;;;;;2.38;0.70;;;;;26.50;101977.00;;;;5032040;28;20662;-76
2022/07/22 10:35:58;;;;;;;0.93;0.68;;;;;26.50;101971.00;;;;5044388;28;20239;-77
2022/07/22 10:38:28;;;;;;;0.80;0.70;;;;;26.60;101962.00;;;;5029737;28;20191;-77
2022/07/22 10:40:58;;;;;;;1.52;0.50;;;;;26.60;101959.00;;;;5034190;28;20211;-77
2022/07/22 10:43:27;;;;;;;0.98;0.60;;;;;26.70;101960.00;;;;5030837;28;20387;-77
2022/07/22 10:45:57;;;;;;;1.95;0.70;;;;;26.70;101963.00;;;;5027768;28;20212;-76
2022/07/22 10:48:44;;;;;;;0.70;0.38;;;;;26.70;101971.00;;;;5029402;28;20219;-77
2022/07/22 10:51:13;;;;;;;1.20;0.50;;;;;26.70;101969.00;;;;5028600;28;20200;-77
2022/07/22 10:53:43;;;;;;;0.90;0.45;;;;;26.80;101970.00;;;;5027138;28;20219;-76
2022/07/22 10:56:20;;;;;;;0.98;0.43;;;;;26.70;101960.00;;;;5027282;28;20200;-76
2022/07/22 10:58:51;;;;;;;1.70;0.70;;;;;26.90;101962.00;;;;5046345;28;20218;-77
2022/07/22 11:01:20;;;;;;;0.63;0.40;;;;;27.00;101953.00;;;;5032354;28;20206;-78
2022/07/22 11:03:49;;;;;;;3.47;0.95;;;;;27.10;101960.00;;;;5030692;28;20274;-77
2022/07/22 11:06:29;;;;;;;2.63;0.60;;;;;27.10;101944.00;;;;5033537;28;20692;-78
2022/07/22 11:08:58;;;;;;;3.38;0.60;;;;;27.20;101948.00;;;;5044336;28;20207;-77
2022/07/22 11:11:41;;;;;;;0.88;0.63;;;;;27.20;101943.00;;;;5031365;28;20200;-77
2022/07/22 11:14:16;;;;;;;0.65;0.60;;;;;27.20;101948.00;;;;5043936;28;20265;-78
2022/07/22 11:16:44;;;;;;;3.33;0.80;;;;;27.30;101937.00;;;;5033219;28;20196;-77
2022/07/22 11:19:12;;;;;;;1.80;0.73;;;;;27.30;101937.00;;;;5045363;28;20204;-76
2022/07/22 11:21:39;;;;;;;0.85;0.80;;;;;27.30;101936.00;;;;5039216;28;20200;-77
2022/07/22 11:24:10;;;;;;;1.23;0.70;;;;;27.30;101939.00;;;;5036159;28;20200;-76
2022/07/22 11:26:41;;;;;;;1.38;1.05;;;;;27.30;101940.00;;;;5027030;28;20192;-77
2022/07/22 11:29:09;;;;;;;3.42;0.88;;;;;27.30;101940.00;;;;5027738;28;20188;-77
2022/07/22 11:31:38;;;;;;;1.13;0.50;;;;;27.30;101936.00;;;;5028939;28;20593;-76
2022/07/22 11:34:22;;;;;;;0.95;0.60;;;;;27.20;101934.00;;;;5027349;28;20204;-79
2022/07/22 11:36:50;;;;;;;1.20;0.63;;;;;27.30;101938.00;;;;4996188;28;20280;-76
2022/07/22 11:39:22;;;;;;;1.77;0.70;;;;;27.30;101943.00;;;;5004889;28;20201;-77
2022/07/22 11:41:52;;;;;;;0.88;0.73;;;;;27.30;101938.00;;;;4990949;28;20206;-76
2022/07/22 11:44:20;;;;;;;1.77;0.85;;;;;27.30;101941.00;;;;4985843;28;20213;-78
2022/07/22 11:46:48;;;;;;;3.08;0.90;;;;;27.30;101934.00;;;;5004072;28;20201;-78
2022/07/22 11:49:17;;;;;;;1.70;0.98;;;;;27.40;101930.00;;;;5000009;28;20224;-79
2022/07/22 11:51:44;;;;;;;2.38;0.90;;;;;27.40;101920.00;;;;4990492;28;20205;-78
2022/07/22 11:54:12;;;;;;;2.28;0.90;;;;;27.50;101913.00;;;;5001686;28;20197;-79
2022/07/22 11:56:40;;;;;;;1.02;0.80;;;;;27.50;101905.00;;;;4997577;28;20209;-78
2022/07/22 11:59:12;;;;;;;1.25;1.08;;;;;27.60;101904.00;;;;4994478;28;20205;-78
2022/07/22 12:01:40;;;;;;;1.63;1.05;;;;;27.60;101898.00;;;;4999081;28;20197;-77
2022/07/22 12:04:09;;;;;;;2.15;0.98;;;;;27.70;101905.00;;;;4989166;28;20233;-79
2022/07/22 12:06:39;;;;;;;2.83;1.15;;;;;27.70;101900.00;;;;4987943;28;20293;-79
2022/07/22 12:09:08;;;;;;;4.03;1.27;;;;;27.70;101894.00;;;;5039791;28;20234;-77
2022/07/22 12:11:37;;;;;;;2.67;1.42;;;;;27.80;101889.00;;;;5037697;28;20571;-77
2022/07/22 12:14:11;;;;;;;3.67;1.25;;;;;27.70;101884.00;;;;5034012;28;20204;-78